Time;durP1;ratioP1;P1;durP2;ratioP2;P2;SDS_P1;SDS_P2;PMS_P1;PMS_P2;Temp;Humidity;BMP_temperature;BMP_pressure;BME280_temperature;BME280_humidity;BME280_pressure;Samples;Min_cycle;Max_cycle;Signal;HPM_P1;HPM_P2
2023/08/19 00:02:12;;;;;;;;;;;;;;;22.90;100.00;99675.25;5058166;28;860;-66
2023/08/19 00:04:39;;;;;;;;;;;;;;;22.88;100.00;99681.38;5057856;28;1446;-66
2023/08/19 00:07:06;;;;;;;;;;;;;;;22.91;100.00;99676.81;5058269;28;843;-65
2023/08/19 00:09:38;;;;;;;;;;;;;;;22.93;100.00;99674.28;5058055;28;883;-65
2023/08/19 00:12:06;;;;;;;;;;;;;;;22.92;100.00;99670.69;5058276;28;950;-65
2023/08/19 00:14:33;;;;;;;;;;;;;;;22.90;100.00;99664.75;5057988;28;1910;-65
2023/08/19 00:17:00;;;;;;;;;;;;;;;22.83;100.00;99665.19;5058098;28;871;-66
2023/08/19 00:19:27;;;;;;;;;;;;;;;22.74;100.00;99677.31;5056757;28;1328;-68
2023/08/19 00:21:54;;;;;;;;;;;;;;;22.56;100.00;99669.13;5058031;28;906;-66
2023/08/19 00:24:21;;;;;;;;;;;;;;;22.31;100.00;99673.34;5057992;28;879;-67
2023/08/19 00:26:47;;;;;;;;;;;;;;;22.17;100.00;99672.06;5058152;28;822;-65
2023/08/19 00:29:13;;;;;;;;;;;;;;;22.08;100.00;99674.97;5057950;28;890;-67
2023/08/19 00:31:40;;;;;;;;;;;;;;;22.07;100.00;99673.44;5057858;28;906;-69
2023/08/19 00:34:07;;;;;;;;;;;;;;;22.08;100.00;99681.38;5057891;28;1890;-67
2023/08/19 00:36:34;;;;;;;;;;;;;;;22.09;100.00;99673.72;5057898;28;855;-68
2023/08/19 00:39:00;;;;;;;;;;;;;;;22.05;100.00;99664.69;5057925;28;807;-68
2023/08/19 00:41:27;;;;;;;;;;;;;;;22.01;100.00;99660.03;5057703;28;894;-66
2023/08/19 00:43:54;;;;;;;;;;;;;;;21.99;100.00;99647.72;5057927;28;800;-68
2023/08/19 00:46:21;;;;;;;;;;;;;;;21.99;100.00;99650.53;5057764;28;835;-66
2023/08/19 00:48:47;;;;;;;;;;;;;;;21.99;100.00;99647.72;5057759;28;883;-66
2023/08/19 00:51:14;;;;;;;;;;;;;;;21.98;100.00;99648.97;5057768;28;918;-66
2023/08/19 00:53:41;;;;;;;;;;;;;;;22.00;100.00;99647.22;5057787;28;867;-68
2023/08/19 00:56:08;;;;;;;;;;;;;;;22.03;100.00;99645.47;5057567;28;1949;-66
2023/08/19 00:58:34;;;;;;;;;;;;;;;22.01;100.00;99662.06;5055524;28;911;-67
2023/08/19 01:01:01;;;;;;;;;;;;;;;21.98;100.00;99661.00;5054446;28;907;-65
2023/08/19 01:03:28;;;;;;;;;;;;;;;21.96;100.00;99665.56;5054129;28;1233;-65
2023/08/19 01:06:17;;;;;;;;;;;;;;;21.92;100.00;99673.41;5054492;28;869;-66
2023/08/19 01:08:48;;;;;;;;;;;;;;;21.92;100.00;99668.56;5054325;28;804;-65
2023/08/19 01:11:28;;;;;;;;;;;;;;;21.84;100.00;99663.81;5054378;28;844;-66
2023/08/19 01:14:16;;;;;;;;;;;;;;;21.81;100.00;99666.31;5054235;28;990;-65
2023/08/19 01:16:46;;;;;;;;;;;;;;;21.89;100.00;99658.28;5054054;28;1419;-66
2023/08/19 01:19:19;;;;;;;;;;;;;;;21.95;100.00;99664.00;5052850;28;1467;-67
2023/08/19 01:21:46;;;;;;;;;;;;;;;22.00;100.00;99666.94;5054286;28;832;-67
2023/08/19 01:24:15;;;;;;;;;;;;;;;22.08;100.00;99658.84;5054104;28;918;-66
2023/08/19 01:26:41;;;;;;;;;;;;;;;22.10;100.00;99656.31;5053890;28;820;-67
2023/08/19 01:29:08;;;;;;;;;;;;;;;22.14;100.00;99654.09;5054000;28;828;-66
2023/08/19 01:31:35;;;;;;;;;;;;;;;22.16;100.00;99662.84;5053900;28;883;-65
2023/08/19 01:34:01;;;;;;;;;;;;;;;22.19;100.00;99650.63;5053972;28;863;-67
2023/08/19 01:36:41;;;;;;;;;;;;;;;22.14;100.00;99662.53;5053759;28;1951;-68
2023/08/19 01:39:09;;;;;;;;;;;;;;;22.16;100.00;99648.75;5053870;28;878;-66
2023/08/19 01:41:37;;;;;;;;;;;;;;;22.11;100.00;99643.06;5053781;28;1126;-67
2023/08/19 01:44:04;;;;;;;;;;;;;;;22.08;100.00;99646.81;5053658;28;851;-67
2023/08/19 01:46:31;;;;;;;;;;;;;;;22.08;100.00;99644.00;5053738;28;823;-67
2023/08/19 01:48:58;;;;;;;;;;;;;;;22.10;100.00;99645.06;5052335;28;1332;-66
2023/08/19 01:51:28;;;;;;;;;;;;;;;22.16;100.00;99648.75;5053480;28;861;-66
2023/08/19 01:53:55;;;;;;;;;;;;;;;22.16;100.00;99656.44;5053586;28;824;-66
2023/08/19 01:56:22;;;;;;;;;;;;;;;22.14;100.00;99659.72;5053422;28;1976;-65
2023/08/19 01:58:48;;;;;;;;;;;;;;;22.13;100.00;99657.41;5053357;28;868;-66
2023/08/19 02:01:15;;;;;;;;;;;;;;;22.09;100.00;99654.03;5053447;28;827;-67
2023/08/19 02:03:41;;;;;;;;;;;;;;;22.03;100.00;99657.50;5053102;28;1443;-65
2023/08/19 02:06:11;;;;;;;;;;;;;;;21.96;100.00;99665.56;5053366;28;884;-67
2023/08/19 02:08:38;;;;;;;;;;;;;;;21.99;100.00;99664.59;5053236;28;812;-66
2023/08/19 02:11:04;;;;;;;;;;;;;;;22.00;100.00;99661.28;5051971;28;985;-65
2023/08/19 02:13:31;;;;;;;;;;;;;;;22.02;100.00;99660.81;5053153;28;878;-67
2023/08/19 02:15:58;;;;;;;;;;;;;;;22.01;100.00;99660.03;5053079;28;1910;-66
2023/08/19 02:18:25;;;;;;;;;;;;;;;21.98;100.00;99655.38;5053213;28;848;-66
2023/08/19 02:20:51;;;;;;;;;;;;;;;22.01;100.00;99664.88;5053046;28;867;-67
2023/08/19 02:23:18;;;;;;;;;;;;;;;21.98;100.00;99663.81;5053032;28;832;-66
2023/08/19 02:25:45;;;;;;;;;;;;;;;21.99;100.00;99673.78;5052813;28;872;-68
2023/08/19 02:28:11;;;;;;;;;;;;;;;21.97;100.00;99665.06;5052852;28;820;-66
2023/08/19 02:30:40;;;;;;;;;;;;;;;21.96;100.00;99659.94;5052947;28;875;-66
2023/08/19 02:33:07;;;;;;;;;;;;;;;21.95;100.00;99650.69;5053061;28;832;-67
2023/08/19 02:35:34;;;;;;;;;;;;;;;21.95;100.00;99655.56;5052713;28;1885;-67
2023/08/19 02:38:01;;;;;;;;;;;;;;;21.93;100.00;99652.44;5051422;28;1243;-65
2023/08/19 02:40:29;;;;;;;;;;;;;;;21.93;100.00;99641.19;5052565;28;875;-66
2023/08/19 02:42:56;;;;;;;;;;;;;;;21.91;100.00;99644.53;5051446;28;1318;-67
2023/08/19 02:45:24;;;;;;;;;;;;;;;21.91;100.00;99635.28;5052562;28;827;-66
2023/08/19 02:47:51;;;;;;;;;;;;;;;21.91;100.00;99635.28;5052505;28;816;-69
2023/08/19 02:50:17;;;;;;;;;;;;;;;21.97;100.00;99638.97;5052377;28;883;-67
2023/08/19 03:04:56;;;;;;;;;;;;;;;21.85;100.00;99651.28;5041281;28;1467;-65
2023/08/19 03:07:23;;;;;;;;;;;;;;;21.90;100.00;99654.22;5052236;28;848;-66
2023/08/19 03:09:50;;;;;;;;;;;;;;;21.85;100.00;99654.91;5052042;28;863;-67
2023/08/19 03:12:16;;;;;;;;;;;;;;;21.90;100.00;99657.03;5051910;28;811;-67
2023/08/19 03:14:44;;;;;;;;;;;;;;;21.96;100.00;99655.09;5052013;28;1973;-66
2023/08/19 03:17:11;;;;;;;;;;;;;;;22.01;100.00;99662.06;5052032;28;859;-67
2023/08/19 03:19:37;;;;;;;;;;;;;;;22.05;100.00;99665.47;5051908;28;883;-68
2023/08/19 03:22:04;;;;;;;;;;;;;;;22.07;100.00;99665.75;5051535;28;867;-67
2023/08/19 03:24:31;;;;;;;;;;;;;;;22.08;100.00;99669.34;5051917;28;828;-67
2023/08/19 03:26:57;;;;;;;;;;;;;;;22.08;100.00;99674.97;5051739;28;824;-67
2023/08/19 03:29:25;;;;;;;;;;;;;;;22.05;100.00;99676.72;5051946;28;836;-65
2023/08/19 03:31:50;;;;;;;;;;;;;;;22.04;100.00;99680.81;5051758;28;901;-65
2023/08/19 03:34:17;;;;;;;;;;;;;;;22.08;100.00;99669.34;5051737;28;1890;-66
2023/08/19 03:36:43;;;;;;;;;;;;;;;22.14;100.00;99673.03;5051984;28;867;-67
2023/08/19 03:39:10;;;;;;;;;;;;;;;22.23;100.00;99675.75;5051755;28;903;-65
2023/08/19 03:41:37;;;;;;;;;;;;;;;22.27;100.00;99681.97;5051748;28;890;-65
2023/08/19 03:44:04;;;;;;;;;;;;;;;22.31;100.00;99682.56;5051638;28;855;-68
2023/08/19 03:46:31;;;;;;;;;;;;;;;22.34;100.00;99694.88;5051751;28;871;-67
2023/08/19 03:48:58;;;;;;;;;;;;;;;22.37;100.00;99699.56;5051590;28;863;-66
2023/08/19 03:51:25;;;;;;;;;;;;;;;22.39;100.00;99713.91;5051642;28;850;-67
2023/08/19 03:53:52;;;;;;;;;;;;;;;22.39;100.00;99720.31;5051677;28;921;-67
2023/08/19 03:56:19;;;;;;;;;;;;;;;22.40;100.00;99709.81;5051452;28;1886;-66
2023/08/19 03:58:46;;;;;;;;;;;;;;;22.37;100.00;99717.22;5051620;28;858;-65
2023/08/19 04:01:13;;;;;;;;;;;;;;;22.36;100.00;99714.88;5051533;28;834;-70
2023/08/19 04:03:40;;;;;;;;;;;;;;;22.34;100.00;99715.38;5051384;28;1241;-66
2023/08/19 04:18:16;;;;;;;;;;;;;;;22.63;100.00;99706.09;5050991;28;740;-67
2023/08/19 04:20:43;;;;;;;;;;;;;;;22.74;100.00;99699.88;5051348;28;828;-69
2023/08/19 10:46:36;;;;;;;;;;;;;;;34.70;29.57;99749.03;5004492;28;1326;-68
2023/08/19 10:49:05;;;;;;;;;;;;;;;34.46;29.82;99751.09;5032511;28;1453;-68
2023/08/19 10:51:51;;;;;;;;;;;;;;;34.30;30.67;99772.47;5032717;28;888;-67
2023/08/19 10:54:29;;;;;;;;;;;;;;;34.81;29.71;99756.50;5032706;28;898;-65
2023/08/19 10:57:14;;;;;;;;;;;;;;;34.95;29.40;99758.59;5014728;28;1299;-66
2023/08/19 10:59:42;;;;;;;;;;;;;;;35.25;28.74;99762.00;5032487;28;863;-66
2023/08/19 11:02:10;;;;;;;;;;;;;;;35.08;29.02;99757.59;5032385;28;848;-67
2023/08/19 11:04:43;;;;;;;;;;;;;;;34.91;29.51;99766.03;5032334;28;1272;-68
2023/08/19 11:07:10;;;;;;;;;;;;;;;34.48;29.56;99759.09;5032364;28;857;-68
2023/08/19 11:09:39;;;;;;;;;;;;;;;34.47;29.79;99744.00;5032363;28;863;-73
2023/08/19 11:12:06;;;;;;;;;;;;;;;34.61;29.97;99753.22;5032209;28;891;-66
2023/08/19 11:14:33;;;;;;;;;;;;;;;34.73;29.62;99757.25;5032120;28;1882;-68
2023/08/19 11:29:11;;;;;;;;;;;;;;;35.57;28.94;99750.63;5032101;28;868;-67
2023/08/19 11:31:38;;;;;;;;;;;;;;;35.37;29.04;99745.88;5032235;28;860;-65
2023/08/19 11:34:09;;;;;;;;;;;;;;;35.80;28.96;99731.75;5032108;28;906;-64
2023/08/19 11:36:36;;;;;;;;;;;;;;;36.17;29.19;99738.69;5031849;28;1890;-70
2023/08/19 11:39:06;;;;;;;;;;;;;;;35.88;29.58;99755.50;5031859;28;820;-65
2023/08/19 11:41:33;;;;;;;;;;;;;;;36.09;29.04;99743.69;5031801;28;909;-65
2023/08/19 11:44:03;;;;;;;;;;;;;;;36.22;29.17;99734.81;5031449;28;804;-67
2023/08/19 11:46:30;;;;;;;;;;;;;;;36.31;29.23;99745.66;5031777;28;860;-65
2023/08/19 11:48:58;;;;;;;;;;;;;;;36.65;27.59;99744.28;5031631;28;1486;-67
2023/08/19 11:51:27;;;;;;;;;;;;;;;36.76;27.00;99740.91;5031664;28;820;-71
2023/08/19 11:54:04;;;;;;;;;;;;;;;36.53;27.70;99743.19;5031985;28;903;-65
2023/08/19 11:56:52;;;;;;;;;;;;;;;36.10;28.20;99750.94;5031581;28;1902;-67
2023/08/19 11:59:18;;;;;;;;;;;;;;;35.88;27.47;99755.50;5013767;28;1086;-68
2023/08/19 12:01:51;;;;;;;;;;;;;;;35.96;27.32;99759.84;5031976;28;899;-67
2023/08/19 12:04:18;;;;;;;;;;;;;;;35.84;28.34;99758.00;5031524;28;1034;-68
2023/08/19 12:06:46;;;;;;;;;;;;;;;35.94;27.72;99751.03;5031588;28;897;-68
2023/08/19 12:09:13;;;;;;;;;;;;;;;36.32;27.76;99747.22;5031818;28;867;-68
2023/08/19 12:11:41;;;;;;;;;;;;;;;36.36;27.63;99749.66;5031451;28;829;-65
2023/08/19 12:14:07;;;;;;;;;;;;;;;36.99;26.96;99760.13;5031508;28;844;-66
2023/08/19 12:16:34;;;;;;;;;;;;;;;36.59;27.59;99750.28;5031567;28;1890;-66
2023/08/19 12:19:00;;;;;;;;;;;;;;;36.53;27.83;99743.19;5031518;28;851;-65
2023/08/19 12:21:27;;;;;;;;;;;;;;;37.18;26.75;99748.81;5031332;28;804;-69
2023/08/19 12:23:54;;;;;;;;;;;;;;;37.38;26.90;99751.84;5031535;28;883;-67
2023/08/19 12:26:20;;;;;;;;;;;;;;;37.14;25.52;99736.19;5031461;28;951;-68
2023/08/19 12:28:47;;;;;;;;;;;;;;;36.85;26.37;99741.63;5031433;28;863;-66
2023/08/19 12:43:25;;;;;;;;;;;;;;;37.08;26.09;99747.16;5012015;28;964;-68
2023/08/19 12:45:52;;;;;;;;;;;;;;;37.19;26.43;99741.72;5011837;28;879;-65
2023/08/19 12:48:19;;;;;;;;;;;;;;;37.79;25.93;99735.06;5011227;28;1416;-65
2023/08/19 12:50:45;;;;;;;;;;;;;;;37.71;25.51;99734.41;5011641;28;817;-66
2023/08/19 12:53:12;;;;;;;;;;;;;;;37.28;25.26;99736.59;5011578;28;828;-69
2023/08/19 12:55:39;;;;;;;;;;;;;;;37.11;25.68;99738.13;5013897;28;1977;-65
2023/08/19 12:58:05;;;;;;;;;;;;;;;37.79;24.98;99732.19;5015171;28;844;-65
2023/08/19 13:00:32;;;;;;;;;;;;;;;37.57;25.56;99731.84;5015213;28;860;-65
2023/08/19 13:02:59;;;;;;;;;;;;;;;37.65;25.66;99734.66;5013784;28;1296;-65
2023/08/19 13:05:29;;;;;;;;;;;;;;;37.87;24.73;99726.31;5015053;28;1234;-66
2023/08/19 13:07:56;;;;;;;;;;;;;;;37.57;25.66;99734.00;5014757;28;942;-68
2023/08/19 13:10:23;;;;;;;;;;;;;;;37.32;24.86;99734.84;5014697;28;915;-65
2023/08/19 13:12:51;;;;;;;;;;;;;;;37.68;24.79;99730.56;5014654;28;927;-67
2023/08/19 13:15:18;;;;;;;;;;;;;;;37.83;24.61;99734.63;5014508;28;1949;-69
2023/08/19 13:17:45;;;;;;;;;;;;;;;37.30;24.51;99737.56;5014691;28;879;-68
2023/08/19 13:20:13;;;;;;;;;;;;;;;36.87;25.40;99733.94;5013164;28;1325;-70
2023/08/19 13:22:39;;;;;;;;;;;;;;;36.66;25.44;99731.44;5014602;28;868;-68
2023/08/19 13:25:06;;;;;;;;;;;;;;;36.91;25.34;99730.63;5014665;28;942;-66
2023/08/19 13:27:33;;;;;;;;;;;;;;;37.26;25.48;99722.06;5013132;28;1193;-67
2023/08/19 13:30:00;;;;;;;;;;;;;;;37.40;24.84;99726.09;5014684;28;843;-66
2023/08/19 13:32:27;;;;;;;;;;;;;;;37.85;23.98;99714.59;5014329;28;848;-68
2023/08/19 13:34:54;;;;;;;;;;;;;;;37.79;24.42;99729.31;5014284;28;1887;-65
2023/08/19 13:37:21;;;;;;;;;;;;;;;37.81;24.46;99723.69;5014419;28;880;-65
2023/08/19 13:39:47;;;;;;;;;;;;;;;37.84;24.12;99727.50;5014096;28;842;-66
2023/08/19 13:42:14;;;;;;;;;;;;;;;37.94;23.95;99734.84;5014130;28;1010;-65
2023/08/19 13:44:41;;;;;;;;;;;;;;;37.63;24.11;99725.84;5013991;28;959;-65
2023/08/19 13:47:08;;;;;;;;;;;;;;;37.42;24.34;99734.91;5013796;28;1216;-69
2023/08/19 13:49:35;;;;;;;;;;;;;;;37.29;24.49;99723.72;5013979;28;852;-65
2023/08/19 13:52:02;;;;;;;;;;;;;;;37.38;25.57;99723.81;5013944;28;873;-65
2023/08/19 13:54:29;;;;;;;;;;;;;;;37.35;25.63;99719.22;5013881;28;847;-68
2023/08/19 13:56:59;;;;;;;;;;;;;;;37.07;25.10;99734.88;5012875;28;1902;-65
2023/08/19 13:59:26;;;;;;;;;;;;;;;36.86;25.36;99728.75;5013826;28;821;-65
2023/08/19 14:01:52;;;;;;;;;;;;;;;36.77;25.61;99719.44;5013761;28;857;-70
2023/08/19 14:04:18;;;;;;;;;;;;;;;36.23;26.04;99727.69;5013723;28;831;-66
2023/08/19 14:06:45;;;;;;;;;;;;;;;35.89;27.10;99726.16;5013496;28;836;-66
2023/08/19 14:09:12;;;;;;;;;;;;;;;35.75;27.00;99727.75;5013909;28;903;-65
2023/08/19 14:11:38;;;;;;;;;;;;;;;35.40;27.55;99732.47;5013583;28;928;-65
2023/08/19 14:14:05;;;;;;;;;;;;;;;34.91;27.46;99740.97;5013788;28;836;-67
2023/08/19 14:16:32;;;;;;;;;;;;;;;34.45;28.57;99732.34;5013401;28;1891;-65
2023/08/19 14:18:59;;;;;;;;;;;;;;;34.22;29.11;99740.16;5013425;28;871;-65
2023/08/19 14:21:27;;;;;;;;;;;;;;;33.89;29.53;99734.88;5013358;28;875;-66
2023/08/19 14:23:53;;;;;;;;;;;;;;;33.65;29.97;99732.50;5013664;28;820;-66
2023/08/19 14:26:19;;;;;;;;;;;;;;;33.42;30.71;99736.00;5013290;28;841;-65
2023/08/19 14:28:46;;;;;;;;;;;;;;;33.53;30.69;99743.50;5013314;28;1010;-65
2023/08/19 14:31:13;;;;;;;;;;;;;;;33.56;30.63;99745.22;5013338;28;820;-65
2023/08/19 14:34:05;;;;;;;;;;;;;;;33.75;30.91;99736.34;5013259;28;892;-65
2023/08/19 14:36:32;;;;;;;;;;;;;;;34.21;30.19;99744.38;5013160;28;1945;-66
2023/08/19 14:39:00;;;;;;;;;;;;;;;34.42;29.96;99749.91;5012984;28;883;-68
2023/08/19 14:41:29;;;;;;;;;;;;;;;33.68;30.32;99745.69;5013104;28;1034;-66
2023/08/19 14:43:56;;;;;;;;;;;;;;;33.08;31.88;99757.00;5012966;28;958;-67
2023/08/19 14:46:22;;;;;;;;;;;;;;;32.94;32.51;99750.56;5012996;28;872;-65
2023/08/19 14:48:49;;;;;;;;;;;;;;;32.94;32.02;99749.78;5012628;28;1270;-65
2023/08/19 14:51:16;;;;;;;;;;;;;;;32.55;32.51;99746.63;5012924;28;891;-64
2023/08/19 14:53:42;;;;;;;;;;;;;;;32.34;33.81;99749.44;5012857;28;840;-65
2023/08/19 14:56:09;;;;;;;;;;;;;;;32.39;33.93;99742.06;5012851;28;1914;-64
2023/08/19 14:58:35;;;;;;;;;;;;;;;32.51;33.48;99736.84;5012781;28;888;-64
2023/08/19 15:01:03;;;;;;;;;;;;;;;32.31;33.84;99749.81;5012796;28;833;-64
2023/08/19 15:03:30;;;;;;;;;;;;;;;32.16;34.27;99744.69;5012603;28;867;-64
2023/08/19 15:05:57;;;;;;;;;;;;;;;32.11;34.26;99739.88;5012620;28;932;-64
2023/08/19 15:08:24;;;;;;;;;;;;;;;32.06;34.30;99735.81;5012524;28;816;-65
2023/08/19 15:10:51;;;;;;;;;;;;;;;32.04;34.37;99740.56;5012558;28;820;-64
2023/08/19 15:13:19;;;;;;;;;;;;;;;32.01;34.70;99736.72;5012474;28;835;-65
2023/08/19 15:15:46;;;;;;;;;;;;;;;31.94;34.81;99749.59;5012432;28;1953;-64
2023/08/19 15:18:14;;;;;;;;;;;;;;;31.82;34.78;99750.38;5011922;28;996;-64
2023/08/19 15:20:40;;;;;;;;;;;;;;;31.66;35.75;99746.56;5012362;28;840;-64
2023/08/19 15:23:07;;;;;;;;;;;;;;;31.55;35.26;99744.72;5012593;28;832;-64
2023/08/19 15:25:33;;;;;;;;;;;;;;;31.49;35.58;99738.34;5012232;28;1049;-64
2023/08/19 15:28:00;;;;;;;;;;;;;;;31.48;35.66;99740.44;5012387;28;986;-64
2023/08/19 15:30:27;;;;;;;;;;;;;;;31.31;36.08;99745.69;5012255;28;844;-65
2023/08/19 15:32:54;;;;;;;;;;;;;;;31.30;36.19;99742.09;5012223;28;877;-64
2023/08/19 15:35:20;;;;;;;;;;;;;;;31.30;36.33;99744.94;5012167;28;1856;-64
2023/08/19 15:37:47;;;;;;;;;;;;;;;31.05;36.59;99752.19;5012101;28;864;-65
2023/08/19 15:40:13;;;;;;;;;;;;;;;30.76;37.31;99756.81;5012070;28;829;-67
2023/08/19 15:42:40;;;;;;;;;;;;;;;30.52;37.64;99747.09;5012098;28;1041;-64
2023/08/19 15:45:07;;;;;;;;;;;;;;;30.37;38.07;99755.38;5012129;28;855;-65
2023/08/19 15:47:34;;;;;;;;;;;;;;;30.19;38.37;99754.81;5011829;28;1392;-65
2023/08/19 15:50:00;;;;;;;;;;;;;;;30.10;38.86;99758.84;5011984;28;829;-66
2023/08/19 15:52:27;;;;;;;;;;;;;;;30.00;39.15;99746.31;5011957;28;892;-65
2023/08/19 15:54:53;;;;;;;;;;;;;;;29.91;39.58;99755.22;5011882;28;1919;-64
2023/08/19 15:57:19;;;;;;;;;;;;;;;29.85;39.50;99760.22;5011876;28;852;-65
2023/08/19 15:59:47;;;;;;;;;;;;;;;29.80;39.66;99761.84;5011956;28;859;-64
2023/08/19 16:02:14;;;;;;;;;;;;;;;29.71;39.92;99756.56;5011826;28;871;-64
2023/08/19 16:04:41;;;;;;;;;;;;;;;29.61;40.33;99749.66;5011940;28;903;-65
2023/08/19 16:07:07;;;;;;;;;;;;;;;29.45;40.38;99748.56;5011685;28;872;-65
2023/08/19 16:09:34;;;;;;;;;;;;;;;29.33;40.96;99750.00;5011957;28;808;-64
2023/08/19 16:12:01;;;;;;;;;;;;;;;29.19;41.14;99746.25;5011865;28;928;-67
2023/08/19 16:14:27;;;;;;;;;;;;;;;29.04;41.30;99755.19;5011894;28;832;-65
2023/08/19 16:16:53;;;;;;;;;;;;;;;28.89;42.03;99752.75;5011902;28;1886;-66
2023/08/19 16:19:21;;;;;;;;;;;;;;;28.75;42.26;99754.69;5012015;28;793;-65
2023/08/19 16:21:48;;;;;;;;;;;;;;;28.61;43.06;99755.84;5011885;28;878;-65
2023/08/19 16:24:15;;;;;;;;;;;;;;;28.48;43.14;99753.59;5011877;28;860;-65
2023/08/19 16:26:42;;;;;;;;;;;;;;;28.40;43.44;99756.25;5011885;28;903;-64
2023/08/19 16:29:08;;;;;;;;;;;;;;;28.34;43.56;99760.44;5011822;28;908;-64
2023/08/19 16:31:42;;;;;;;;;;;;;;;28.29;43.48;99759.16;5015825;28;1192;-65
2023/08/19 16:34:08;;;;;;;;;;;;;;;28.27;44.00;99758.91;5014029;28;1446;-64
2023/08/19 16:36:35;;;;;;;;;;;;;;;28.23;43.74;99761.25;5015327;28;1988;-64
2023/08/19 16:39:01;;;;;;;;;;;;;;;28.15;43.88;99763.91;5015374;28;832;-64
2023/08/19 16:41:28;;;;;;;;;;;;;;;28.06;44.26;99767.06;5014036;28;1244;-64
2023/08/19 16:43:55;;;;;;;;;;;;;;;27.94;44.57;99762.75;5015226;28;895;-64
2023/08/19 16:46:24;;;;;;;;;;;;;;;27.80;44.95;99773.09;5015445;28;812;-64
2023/08/19 16:48:50;;;;;;;;;;;;;;;27.66;45.80;99772.16;5014942;28;1496;-64
2023/08/19 16:51:17;;;;;;;;;;;;;;;27.53;46.15;99772.72;5015177;28;970;-65
2023/08/19 16:53:44;;;;;;;;;;;;;;;27.38;47.15;99767.34;5015107;28;864;-64
2023/08/19 16:56:10;;;;;;;;;;;;;;;27.27;47.47;99765.31;5014975;28;1914;-65
2023/08/19 16:58:37;;;;;;;;;;;;;;;27.19;48.36;99769.19;5015014;28;852;-65
2023/08/19 17:01:07;;;;;;;;;;;;;;;27.09;48.55;99760.94;5014881;28;864;-64
2023/08/19 17:03:37;;;;;;;;;;;;;;;26.97;49.72;99767.94;5015218;28;884;-64
2023/08/19 17:06:05;;;;;;;;;;;;;;;26.87;50.04;99764.59;5014749;28;876;-65
2023/08/19 17:08:32;;;;;;;;;;;;;;;26.75;50.71;99762.28;5014744;28;844;-65
2023/08/19 17:10:58;;;;;;;;;;;;;;;26.61;51.36;99766.94;5014698;28;828;-64
2023/08/19 17:13:25;;;;;;;;;;;;;;;26.49;52.50;99768.94;5014681;28;987;-64
2023/08/19 17:15:55;;;;;;;;;;;;;;;26.40;52.80;99760.69;5014639;28;1967;-64
2023/08/19 17:18:22;;;;;;;;;;;;;;;26.31;54.21;99775.09;5014589;28;891;-64
2023/08/19 17:20:56;;;;;;;;;;;;;;;26.25;55.09;99775.09;5014593;28;883;-65
2023/08/19 17:23:23;;;;;;;;;;;;;;;26.17;55.74;99777.66;5014652;28;887;-65
2023/08/19 17:25:49;;;;;;;;;;;;;;;26.11;56.56;99773.25;5014656;28;1264;-64
2023/08/19 17:28:16;;;;;;;;;;;;;;;26.01;58.80;99778.38;5014699;28;1180;-68
2023/08/19 17:30:43;;;;;;;;;;;;;;;25.99;58.77;99773.25;5014737;28;1173;-65
2023/08/19 17:33:11;;;;;;;;;;;;;;;25.95;59.51;99781.22;5014409;28;1282;-65
2023/08/19 17:35:38;;;;;;;;;;;;;;;25.86;60.16;99785.00;5014331;28;1890;-64
2023/08/19 17:38:05;;;;;;;;;;;;;;;25.80;60.47;99794.78;5014434;28;868;-64
2023/08/19 17:40:32;;;;;;;;;;;;;;;25.72;60.95;99799.38;5013800;28;1259;-64
2023/08/19 17:42:58;;;;;;;;;;;;;;;25.68;61.46;99794.72;5014626;28;1169;-64
2023/08/19 17:45:25;;;;;;;;;;;;;;;25.57;62.08;99802.38;5014226;28;833;-64
2023/08/19 17:47:52;;;;;;;;;;;;;;;25.48;62.67;99806.19;5013927;28;1210;-64
2023/08/19 17:50:19;;;;;;;;;;;;;;;25.44;63.27;99811.31;5014234;28;871;-65
2023/08/19 17:52:45;;;;;;;;;;;;;;;25.39;63.79;99807.19;5013910;28;872;-65
2023/08/19 17:55:12;;;;;;;;;;;;;;;25.33;64.30;99806.38;5013829;28;1977;-64
2023/08/19 17:57:38;;;;;;;;;;;;;;;25.30;64.80;99812.25;5013834;28;923;-64
2023/08/19 18:00:05;;;;;;;;;;;;;;;25.27;65.25;99808.38;5013804;28;809;-64
2023/08/19 18:02:32;;;;;;;;;;;;;;;25.25;65.93;99808.88;5013789;28;815;-64
2023/08/19 18:04:59;;;;;;;;;;;;;;;25.26;66.16;99807.63;5013535;28;840;-64
2023/08/19 18:07:26;;;;;;;;;;;;;;;25.24;65.98;99804.53;5013720;28;966;-64
2023/08/19 18:09:53;;;;;;;;;;;;;;;25.14;66.50;99802.38;5013568;28;879;-64
2023/08/19 18:12:20;;;;;;;;;;;;;;;25.07;66.81;99800.75;5013643;28;816;-64
2023/08/19 18:14:47;;;;;;;;;;;;;;;25.01;67.02;99792.25;5013516;28;879;-65
2023/08/19 18:17:14;;;;;;;;;;;;;;;25.00;67.84;99787.88;5012273;28;1184;-65
2023/08/19 18:19:40;;;;;;;;;;;;;;;25.03;67.81;99791.75;5013618;28;874;-64
2023/08/19 18:22:07;;;;;;;;;;;;;;;24.96;68.05;99786.56;5013462;28;903;-64
2023/08/19 18:24:36;;;;;;;;;;;;;;;24.91;68.57;99795.78;5013349;28;939;-64
2023/08/19 18:27:03;;;;;;;;;;;;;;;24.89;68.79;99798.31;5013275;28;990;-64
2023/08/19 18:29:29;;;;;;;;;;;;;;;24.84;69.12;99797.78;5013249;28;879;-64
2023/08/19 18:31:57;;;;;;;;;;;;;;;24.82;69.87;99789.03;5013341;28;848;-64
2023/08/19 18:34:24;;;;;;;;;;;;;;;24.91;69.92;99792.94;5013202;28;867;-64
2023/08/19 18:36:51;;;;;;;;;;;;;;;24.94;70.14;99789.88;5013074;28;1914;-63
2023/08/19 18:39:17;;;;;;;;;;;;;;;24.93;71.03;99788.34;5013108;28;848;-64
2023/08/19 18:41:44;;;;;;;;;;;;;;;24.95;71.12;99782.19;5013106;28;892;-64
2023/08/19 18:44:11;;;;;;;;;;;;;;;24.96;71.32;99778.84;5013226;28;875;-64
2023/08/19 18:49:41;;;;;;;;;;;;;;;24.93;71.43;99768.53;5003316;28;1355;-64
2023/08/19 18:52:07;;;;;;;;;;;;;;;24.89;71.35;99767.25;5012225;28;863;-64
2023/08/19 18:54:33;;;;;;;;;;;;;;;24.88;71.59;99769.28;5012869;28;932;-63
2023/08/19 18:57:00;;;;;;;;;;;;;;;24.89;71.62;99772.88;5012692;28;1972;-64
2023/08/19 18:59:26;;;;;;;;;;;;;;;24.92;71.43;99775.50;5012766;28;871;-64
2023/08/19 19:01:53;;;;;;;;;;;;;;;24.96;71.08;99787.31;5012746;28;859;-63
2023/08/19 19:04:21;;;;;;;;;;;;;;;24.94;71.33;99792.69;5012394;28;1266;-63
2023/08/19 19:06:48;;;;;;;;;;;;;;;24.95;71.53;99790.66;5012666;28;902;-64
2023/08/19 19:09:15;;;;;;;;;;;;;;;24.94;71.81;99795.53;5012705;28;825;-63
2023/08/19 19:11:41;;;;;;;;;;;;;;;24.91;72.25;99793.72;5012656;28;848;-63
2023/08/19 19:14:08;;;;;;;;;;;;;;;24.85;72.81;99790.84;5012535;28;864;-64
2023/08/19 19:16:35;;;;;;;;;;;;;;;24.78;74.12;99794.13;5012381;28;1910;-64
2023/08/19 19:19:02;;;;;;;;;;;;;;;24.72;75.36;99781.25;5012432;28;820;-64
2023/08/19 19:21:33;;;;;;;;;;;;;;;24.71;75.74;99788.16;5012313;28;886;-64
2023/08/19 19:24:01;;;;;;;;;;;;;;;24.63;75.84;99782.19;5012379;28;841;-63
2023/08/19 19:26:27;;;;;;;;;;;;;;;24.56;76.59;99780.59;5012427;28;876;-64
2023/08/19 19:28:54;;;;;;;;;;;;;;;24.48;77.05;99773.81;5012321;28;832;-63
2023/08/19 19:31:21;;;;;;;;;;;;;;;24.42;77.57;99773.75;5012178;28;899;-63
2023/08/19 19:33:47;;;;;;;;;;;;;;;24.47;78.01;99769.44;5010928;28;840;-63
2023/08/19 19:36:14;;;;;;;;;;;;;;;24.52;77.86;99770.81;5012132;28;1898;-64
2023/08/19 19:38:41;;;;;;;;;;;;;;;24.56;77.54;99776.97;5012157;28;908;-65
2023/08/19 19:41:08;;;;;;;;;;;;;;;24.58;76.93;99769.56;5010872;28;1323;-64
2023/08/19 19:43:34;;;;;;;;;;;;;;;24.58;77.24;99774.44;5011980;28;1453;-64
2023/08/19 19:46:01;;;;;;;;;;;;;;;24.61;76.64;99764.97;5012034;28;793;-64
2023/08/19 19:48:27;;;;;;;;;;;;;;;24.53;76.90;99764.63;5011643;28;1273;-63
2023/08/19 19:50:54;;;;;;;;;;;;;;;24.43;77.62;99771.69;5012006;28;840;-63
2023/08/19 19:53:21;;;;;;;;;;;;;;;24.46;77.46;99773.53;5011989;28;885;-63
2023/08/19 19:55:48;;;;;;;;;;;;;;;24.51;77.00;99777.72;5011900;28;1979;-63
2023/08/19 19:58:15;;;;;;;;;;;;;;;24.50;77.03;99781.81;5012052;28;883;-63
2023/08/19 20:00:45;;;;;;;;;;;;;;;24.43;76.54;99775.31;5012093;28;930;-63
2023/08/19 20:03:14;;;;;;;;;;;;;;;24.38;76.74;99766.78;5011880;28;848;-63
2023/08/19 20:05:40;;;;;;;;;;;;;;;24.32;77.37;99769.53;5015875;28;892;-63
2023/08/19 20:08:06;;;;;;;;;;;;;;;24.36;77.15;99760.84;5014747;28;888;-63
2023/08/19 20:10:34;;;;;;;;;;;;;;;24.39;76.98;99759.88;5015839;28;887;-63
2023/08/19 20:13:00;;;;;;;;;;;;;;;24.34;76.90;99752.88;5015813;28;816;-63
2023/08/19 20:15:27;;;;;;;;;;;;;;;24.24;77.37;99752.28;5015862;28;1894;-63
2023/08/19 20:17:54;;;;;;;;;;;;;;;24.20;77.26;99760.22;5015847;28;867;-63
2023/08/19 20:20:21;;;;;;;;;;;;;;;24.14;77.56;99759.38;5014481;28;1610;-63